Oracle, Arizona
Current Conditions -  °F | °C
As of 7:15 PM on Sunday 25 Jan 2015 (Local Time) from KAVQ Reporting Station
Clear Clear  
Wind Chill: 59°   Ceiling: Unl
Heat Index: 59°   Visibility: 10mi
Dew Point: 24°   Wind: 0mph
Humidity: 27%   Direction: NA
Pressure: 30.08"   Gusts: NA
Location:  32.61°N, 110.77°W
Report Text: KAVQ 260215Z AUTO 00000KT 10SM CLR 15/M04 A3008 RMK AO2 T01481042
Loading
Personal Weather Stations






























Interactive Weather Map New forecast layout! Learn more

10-Day Weather Forecast

Advertisements
Track Severe Weather on mobile